createdAt,value
2023-05-18T00:04:08.698Z,5.23
2023-05-18T00:09:11.860Z,5.68
2023-05-18T00:14:14.870Z,4.72
2023-05-18T00:19:18.071Z,4.25
2023-05-18T00:24:21.233Z,4.18
2023-05-18T00:29:24.157Z,4.13
2023-05-18T00:34:27.227Z,4.19
2023-05-18T00:39:30.137Z,3.94
2023-05-18T00:44:33.098Z,3.76
2023-05-18T00:49:36.138Z,3.63
2023-05-18T00:54:39.318Z,3.61
2023-05-18T00:59:42.493Z,3.48
2023-05-18T01:04:45.654Z,3.47
2023-05-18T01:09:48.636Z,3.50
2023-05-18T01:15:03.992Z,3.59
2023-05-18T01:20:30.448Z,3.69
2023-05-18T01:25:50.409Z,3.90
2023-05-18T01:30:54.081Z,4.08
2023-05-18T01:35:56.931Z,4.29
2023-05-18T01:41:21.805Z,4.35
2023-05-18T01:46:41.972Z,4.57
2023-05-18T01:51:46.298Z,4.69
2023-05-18T01:56:50.018Z,4.70
2023-05-18T02:01:59.396Z,4.73
2023-05-18T02:07:03.689Z,4.78
2023-05-18T02:12:07.061Z,4.82
2023-05-18T02:17:10.178Z,4.90
2023-05-18T02:22:13.468Z,4.91
2023-05-18T02:27:16.853Z,5.08
2023-05-18T02:32:20.622Z,5.26
2023-05-18T02:37:23.538Z,5.30
2023-05-18T02:42:26.461Z,5.31
2023-05-18T03:14:39.813Z,6.11
2023-05-18T03:19:42.846Z,6.33
2023-05-18T03:24:46.242Z,6.43
2023-05-18T03:29:56.783Z,6.34
2023-05-18T03:35:01.428Z,6.32
2023-05-18T03:40:13.412Z,6.48
2023-05-18T03:45:18.626Z,6.54
2023-05-18T03:50:21.831Z,6.55
2023-05-18T03:55:24.920Z,6.70
2023-05-18T04:00:29.547Z,6.76
2023-05-18T04:05:32.625Z,6.77
2023-05-18T04:10:35.902Z,6.93
2023-05-18T04:15:39.031Z,7.11
2023-05-18T04:20:43.057Z,7.23
2023-05-18T04:25:46.458Z,7.44
2023-05-18T04:30:49.334Z,7.53
2023-05-18T04:35:59.365Z,7.58
2023-05-18T04:41:05.865Z,7.81
2023-05-18T04:46:09.219Z,8.00
2023-05-18T04:51:12.174Z,8.17
2023-05-18T04:56:15.514Z,8.37
2023-05-18T05:01:19.446Z,8.76
2023-05-18T05:06:22.495Z,9.42
2023-05-18T05:11:25.520Z,9.51
2023-05-18T05:16:28.507Z,9.37
2023-05-18T05:21:32.388Z,9.28
2023-05-18T05:26:35.771Z,9.52
2023-05-18T05:31:38.898Z,9.85
2023-05-18T05:36:42.357Z,9.97
2023-05-18T05:41:45.474Z,9.87
2023-05-18T05:46:48.453Z,10.07
2023-05-18T05:51:52.048Z,10.31
2023-05-18T05:56:55.707Z,10.14
2023-05-18T06:01:59.257Z,10.18
2023-05-18T06:07:03.740Z,10.32
2023-05-18T06:12:07.877Z,10.37
2023-05-18T06:17:10.909Z,10.54
2023-05-18T06:22:14.239Z,10.50
2023-05-18T06:27:27.110Z,10.45
2023-05-18T06:32:56.349Z,10.15
2023-05-18T06:37:59.514Z,10.31
2023-05-18T06:43:02.436Z,10.24
2023-05-18T06:48:18.717Z,10.23
2023-05-18T06:53:22.963Z,10.19
2023-05-18T06:58:26.372Z,10.11
2023-05-18T07:03:30.627Z,10.26
2023-05-18T07:08:34.436Z,10.36
2023-05-18T07:13:37.395Z,10.35
2023-05-18T07:18:42.605Z,10.52
2023-05-18T07:23:45.733Z,10.80
2023-05-18T07:28:49.140Z,10.96
2023-05-18T07:33:52.041Z,10.86
2023-05-18T07:38:55.448Z,10.79
2023-05-18T07:43:58.438Z,11.05
2023-05-18T07:49:54.909Z,11.33
2023-05-18T07:54:59.066Z,11.55
2023-05-18T08:00:02.129Z,11.62
2023-05-18T08:05:16.792Z,11.70
2023-05-18T08:10:19.675Z,11.94
2023-05-18T08:15:23.434Z,12.07
2023-05-18T08:20:26.567Z,12.30
2023-05-18T08:25:29.562Z,12.89
2023-05-18T08:30:32.917Z,12.45
2023-05-18T08:35:35.984Z,12.58
2023-05-18T08:40:47.945Z,12.68
2023-05-18T08:46:08.432Z,13.00
2023-05-18T08:51:11.649Z,12.57
2023-05-18T08:56:15.337Z,12.42
2023-05-18T09:01:18.397Z,12.17
2023-05-18T09:06:23.500Z,12.48
2023-05-18T09:11:28.556Z,12.99
2023-05-18T09:16:31.886Z,13.20
2023-05-18T09:21:34.888Z,13.58
2023-05-18T09:26:39.037Z,14.12
2023-05-18T09:31:42.169Z,14.09
2023-05-18T09:36:49.918Z,13.95
2023-05-18T09:41:59.391Z,13.52
2023-05-18T09:47:03.660Z,13.46
2023-05-18T09:52:10.046Z,13.61
2023-05-18T09:57:13.042Z,13.24
2023-05-18T10:02:16.470Z,13.09
2023-05-18T10:07:19.310Z,12.86
2023-05-18T10:12:23.714Z,12.97
2023-05-18T10:17:27.818Z,12.77
2023-05-18T10:22:30.896Z,12.74
2023-05-18T10:27:36.276Z,12.73
2023-05-18T10:32:39.961Z,12.64
2023-05-18T10:37:49.760Z,12.78
2023-05-18T10:42:53.026Z,12.78
2023-05-18T10:47:57.933Z,12.73
2023-05-18T10:53:01.393Z,12.47
2023-05-18T10:58:08.056Z,12.52
2023-05-18T11:03:15.592Z,12.63
2023-05-18T11:08:28.105Z,12.55
2023-05-18T11:13:33.272Z,12.54
2023-05-18T11:18:45.206Z,12.58
2023-05-18T11:24:15.506Z,12.50
2023-05-18T11:29:22.568Z,12.32
2023-05-18T11:34:49.937Z,12.33
2023-05-18T11:40:00.417Z,12.40
2023-05-18T11:45:12.468Z,12.28
2023-05-18T11:50:17.157Z,12.29
2023-05-18T11:55:21.405Z,12.37
2023-05-18T12:00:25.121Z,12.39
2023-05-18T12:05:31.722Z,12.39
2023-05-18T12:10:37.136Z,12.37
2023-05-18T12:15:39.893Z,12.41
2023-05-18T12:20:42.953Z,13.40
2023-05-18T12:25:45.701Z,13.64
2023-05-18T12:30:48.498Z,14.58
2023-05-18T12:35:51.308Z,13.93
2023-05-18T12:40:56.080Z,13.21
2023-05-18T12:46:02.232Z,12.79
2023-05-18T12:51:05.349Z,12.46
2023-05-18T12:56:11.699Z,13.15
2023-05-18T13:01:15.231Z,16.24
2023-05-18T13:06:19.790Z,18.39
2023-05-18T13:11:26.750Z,19.00
2023-05-18T13:16:30.849Z,19.55
2023-05-18T13:21:34.924Z,19.65
2023-05-18T13:26:37.788Z,19.23
2023-05-18T13:31:41.321Z,19.21
2023-05-18T13:36:44.258Z,19.00
2023-05-18T13:41:47.002Z,18.84
2023-05-18T13:46:49.835Z,18.17
2023-05-18T13:51:53.725Z,17.55
2023-05-18T13:56:56.515Z,16.56
2023-05-18T14:01:59.341Z,15.83
2023-05-18T14:07:02.727Z,15.34
2023-05-18T14:12:06.246Z,14.37
2023-05-18T14:17:11.397Z,12.87
2023-05-18T14:22:14.446Z,11.44
2023-05-18T14:27:17.375Z,10.46
2023-05-18T14:32:21.462Z,9.75
2023-05-18T14:37:24.376Z,9.11
2023-05-18T14:42:27.201Z,8.80
2023-05-18T14:47:30.000Z,8.59
2023-05-18T14:52:32.972Z,8.38
2023-05-18T14:57:35.882Z,8.17
2023-05-18T15:02:38.791Z,7.97
2023-05-18T15:07:41.612Z,7.79
2023-05-18T15:12:44.398Z,7.64
2023-05-18T15:17:47.384Z,7.63
2023-05-18T15:22:51.176Z,7.48
2023-05-18T15:27:54.102Z,7.38
2023-05-18T15:32:58.068Z,7.24
2023-05-18T15:38:00.923Z,7.16
2023-05-18T15:43:03.859Z,7.13
2023-05-18T15:48:07.054Z,7.03
2023-05-18T15:53:09.869Z,6.92
2023-05-18T15:58:13.918Z,6.95
2023-05-18T16:03:17.726Z,6.74
2023-05-18T16:08:23.655Z,6.65
2023-05-18T16:13:27.719Z,6.52
2023-05-18T16:18:30.490Z,6.34
2023-05-18T16:23:33.453Z,6.28
2023-05-18T16:28:36.550Z,6.13
2023-05-18T16:33:39.727Z,5.95
2023-05-18T16:38:42.594Z,5.64
2023-05-18T16:43:45.520Z,5.35
2023-05-18T16:48:48.274Z,5.39
2023-05-18T16:53:52.793Z,5.30
2023-05-18T16:58:55.626Z,5.19
2023-05-18T17:03:58.801Z,5.07
2023-05-18T17:09:02.655Z,5.11
2023-05-18T17:14:06.384Z,4.97
2023-05-18T17:19:09.242Z,4.84
2023-05-18T17:24:12.156Z,4.83
2023-05-18T17:29:17.191Z,4.63
2023-05-18T17:34:21.954Z,4.49
2023-05-18T17:39:25.466Z,4.42
2023-05-18T17:44:28.307Z,4.39
2023-05-18T17:49:32.837Z,4.38
2023-05-18T17:54:35.907Z,4.34
2023-05-18T17:59:38.849Z,4.31
2023-05-18T18:04:41.787Z,4.33
2023-05-18T18:09:44.681Z,4.11
2023-05-18T18:14:47.606Z,4.16
2023-05-18T18:19:51.042Z,4.17
2023-05-18T18:24:53.849Z,4.07
2023-05-18T18:29:56.990Z,3.96
2023-05-18T18:34:59.912Z,3.91
2023-05-18T18:40:02.953Z,3.94
2023-05-18T18:45:07.592Z,3.87
2023-05-18T18:50:10.754Z,3.77
2023-05-18T18:55:13.946Z,3.68
2023-05-18T19:00:20.513Z,3.66
2023-05-18T19:05:24.954Z,3.69
2023-05-18T19:10:28.207Z,3.62
2023-05-18T19:15:32.153Z,3.60
2023-05-18T19:20:35.398Z,3.51
2023-05-18T19:25:38.479Z,3.52
2023-05-18T19:30:41.650Z,3.42
2023-05-18T19:35:44.686Z,3.31
2023-05-18T19:40:47.659Z,3.21
2023-05-18T19:45:50.610Z,3.13
2023-05-18T19:50:53.678Z,3.06
2023-05-18T19:56:02.907Z,2.95
2023-05-18T20:01:05.800Z,2.70
2023-05-18T20:06:08.785Z,2.60
2023-05-18T20:11:12.360Z,2.46
2023-05-18T20:16:15.330Z,2.41
2023-05-18T20:21:19.317Z,2.36
2023-05-18T20:26:23.238Z,2.19
2023-05-18T20:31:26.275Z,1.97
2023-05-18T20:36:30.246Z,1.90
2023-05-18T20:41:33.239Z,1.74
2023-05-18T20:46:38.034Z,1.60
2023-05-18T20:51:41.056Z,1.57
2023-05-18T20:56:44.542Z,1.57
2023-05-18T21:01:48.474Z,1.52
2023-05-18T21:06:51.478Z,1.41
2023-05-18T21:11:54.893Z,1.27
2023-05-18T21:16:58.123Z,1.08
2023-05-18T21:22:02.275Z,1.03
2023-05-18T21:27:06.173Z,1.14
2023-05-18T21:32:09.564Z,1.14
2023-05-18T21:37:12.767Z,1.29
2023-05-18T21:42:15.690Z,1.25
2023-05-18T21:47:18.688Z,1.07
2023-05-18T21:52:21.669Z,0.94
2023-05-18T21:57:25.104Z,0.84
2023-05-18T22:02:28.188Z,0.76
2023-05-18T22:07:31.638Z,0.69
2023-05-18T22:12:34.524Z,0.75
2023-05-18T22:17:37.782Z,0.78
2023-05-18T22:22:41.569Z,0.82
2023-05-18T22:27:44.879Z,0.86
2023-05-18T22:32:48.049Z,1.01
2023-05-18T22:37:51.127Z,1.15
2023-05-18T22:42:55.439Z,1.27
2023-05-18T22:47:58.656Z,1.36
2023-05-18T22:53:02.745Z,1.44
2023-05-18T22:58:05.706Z,1.50
2023-05-18T23:03:08.811Z,1.58
2023-05-18T23:08:11.911Z,1.66
2023-05-18T23:13:17.485Z,1.75
2023-05-18T23:18:20.434Z,1.86
2023-05-18T23:23:29.021Z,2.12
2023-05-18T23:28:31.973Z,2.53
2023-05-18T23:33:36.863Z,3.19
2023-05-18T23:38:41.380Z,3.56
2023-05-18T23:43:44.834Z,4.16
2023-05-18T23:48:49.559Z,4.77
2023-05-18T23:53:52.699Z,5.79
2023-05-18T23:58:55.837Z,6.98
